Time;durP1;ratioP1;P1;durP2;ratioP2;P2;SDS_P1;SDS_P2;PMS_P1;PMS_P2;Temp;Humidity;BMP_temperature;BMP_pressure;BME280_temperature;BME280_humidity;BME280_pressure;Samples;Min_cycle;Max_cycle;Signal;HPM_P1;HPM_P2
2022/05/09 00:01:18;;;;;;;2.78;1.40;;;19.70;52.90;;;;;;5094550;28;20221;-68
2022/05/09 00:03:44;;;;;;;1.83;1.60;;;19.80;53.00;;;;;;5093701;28;20173;-69
2022/05/09 00:06:10;;;;;;;1.98;1.42;;;19.70;52.90;;;;;;5094695;28;20177;-70
2022/05/09 00:08:36;;;;;;;2.72;1.40;;;19.70;52.90;;;;;;5093309;28;20507;-72
2022/05/09 00:11:02;;;;;;;1.60;1.48;;;19.70;53.00;;;;;;5093687;28;20217;-72
2022/05/09 00:13:27;;;;;;;3.75;1.75;;;19.70;53.00;;;;;;5094321;28;20193;-72
2022/05/09 00:15:53;;;;;;;4.05;1.63;;;19.70;53.00;;;;;;5093826;28;20176;-72
2022/05/09 00:18:20;;;;;;;3.22;1.73;;;19.70;53.00;;;;;;5093327;28;20531;-72
2022/05/09 00:20:46;;;;;;;1.92;1.40;;;19.70;53.00;;;;;;5094095;28;20185;-72
2022/05/09 00:23:15;;;;;;;2.25;1.45;;;19.70;53.10;;;;;;5093952;28;20382;-71
2022/05/09 00:25:40;;;;;;;2.30;1.60;;;19.70;53.10;;;;;;5093292;28;20174;-71
2022/05/09 00:28:06;;;;;;;2.90;1.48;;;19.70;53.10;;;;;;5094381;28;20654;-70
2022/05/09 00:30:32;;;;;;;1.75;1.45;;;19.70;53.10;;;;;;5094150;28;20205;-70
2022/05/09 00:32:58;;;;;;;1.98;1.48;;;19.70;53.20;;;;;;5093186;28;20178;-69
2022/05/09 00:35:23;;;;;;;2.03;1.50;;;19.70;53.20;;;;;;5093946;28;20227;-69
2022/05/09 00:37:49;;;;;;;2.42;1.40;;;19.70;53.20;;;;;;5092485;28;20169;-71
2022/05/09 00:40:16;;;;;;;2.38;1.38;;;19.60;53.20;;;;;;5093909;28;20172;-70
2022/05/09 00:42:46;;;;;;;2.25;1.70;;;19.60;53.10;;;;;;5093243;28;20249;-70
2022/05/09 00:45:11;;;;;;;1.95;1.60;;;19.70;53.20;;;;;;5093082;28;20178;-68
2022/05/09 00:47:37;;;;;;;2.80;1.80;;;19.60;53.20;;;;;;5093315;28;20174;-69
2022/05/09 00:50:04;;;;;;;2.03;1.35;;;19.60;53.20;;;;;;5093272;28;20190;-71
2022/05/09 00:52:36;;;;;;;2.35;1.60;;;19.60;53.20;;;;;;5091065;28;20597;-71
2022/05/09 00:55:20;;;;;;;3.65;1.48;;;19.60;53.30;;;;;;5091884;28;20193;-70
2022/05/09 00:58:02;;;;;;;1.70;1.50;;;19.60;53.30;;;;;;5092906;28;20184;-68
2022/05/09 01:00:28;;;;;;;2.78;1.55;;;19.60;53.30;;;;;;5090898;28;20254;-68
2022/05/09 01:02:59;;;;;;;2.45;1.70;;;19.60;53.30;;;;;;5092760;28;20929;-69
2022/05/09 01:05:25;;;;;;;3.53;1.70;;;19.60;53.30;;;;;;5092186;28;20182;-69
2022/05/09 01:07:51;;;;;;;1.70;1.30;;;19.60;53.30;;;;;;5091047;28;20169;-70
2022/05/09 01:10:16;;;;;;;3.53;1.70;;;19.60;53.30;;;;;;5093271;28;20212;-74
2022/05/09 01:12:42;;;;;;;2.55;1.65;;;19.60;53.40;;;;;;5091616;28;20180;-72
2022/05/09 01:15:10;;;;;;;3.08;1.95;;;19.60;53.30;;;;;;5091239;28;20178;-71
2022/05/09 01:17:39;;;;;;;1.70;1.48;;;19.50;53.30;;;;;;5092813;28;20204;-71
2022/05/09 01:20:06;;;;;;;1.55;1.35;;;19.60;53.40;;;;;;5091075;28;20186;-71
2022/05/09 01:22:34;;;;;;;1.80;1.50;;;19.50;53.40;;;;;;5092877;28;20182;-71
2022/05/09 01:25:02;;;;;;;3.00;1.67;;;19.50;53.40;;;;;;5092997;28;20597;-69
2022/05/09 01:27:29;;;;;;;1.63;1.38;;;19.50;53.40;;;;;;5092276;28;20199;-70
2022/05/09 01:30:02;;;;;;;2.20;1.70;;;19.50;53.40;;;;;;5092740;28;20178;-69
2022/05/09 01:32:35;;;;;;;2.45;1.45;;;19.50;53.40;;;;;;5093054;28;20170;-68
2022/05/09 01:35:38;;;;;;;3.33;1.65;;;19.50;53.40;;;;;;5090946;28;20174;-70
2022/05/09 01:38:15;;;;;;;2.35;1.70;;;19.50;53.40;;;;;;5088840;28;20187;-69
2022/05/09 01:40:40;;;;;;;2.97;1.38;;;19.50;53.40;;;;;;5091126;28;20173;-69
2022/05/09 01:43:06;;;;;;;3.28;1.52;;;19.50;53.40;;;;;;5091764;28;20182;-69
2022/05/09 01:45:32;;;;;;;1.88;1.33;;;19.50;53.50;;;;;;5092669;28;20539;-69
2022/05/09 01:50:41;;;;;;;1.83;1.63;;;19.50;53.50;;;;;;5092508;28;20282;-71
2022/05/09 01:53:07;;;;;;;2.13;1.77;;;19.50;53.50;;;;;;5092297;28;20624;-70
2022/05/09 01:55:32;;;;;;;2.22;1.48;;;19.50;53.50;;;;;;5091771;28;20181;-71
2022/05/09 01:57:58;;;;;;;2.45;1.67;;;19.40;53.50;;;;;;5091954;28;20209;-69
2022/05/09 02:00:24;;;;;;;2.28;1.42;;;19.40;53.50;;;;;;5092286;28;20235;-68
2022/05/09 02:02:50;;;;;;;1.98;1.70;;;19.40;53.50;;;;;;5091475;28;20261;-69
2022/05/09 02:05:16;;;;;;;2.13;1.58;;;19.40;53.50;;;;;;5092307;28;20712;-69
2022/05/09 02:07:41;;;;;;;4.03;1.73;;;19.40;53.50;;;;;;5092232;28;20185;-71
2022/05/09 02:10:07;;;;;;;3.05;1.70;;;19.40;53.50;;;;;;5091616;28;20208;-71
2022/05/09 02:12:32;;;;;;;1.55;1.38;;;19.40;53.50;;;;;;5092212;28;20182;-73
2022/05/09 02:14:58;;;;;;;1.95;1.25;;;19.40;53.50;;;;;;5091845;28;20176;-71
2022/05/09 02:17:23;;;;;;;2.47;1.60;;;19.40;53.50;;;;;;5091303;28;20197;-71
2022/05/09 02:19:49;;;;;;;2.83;1.50;;;19.40;53.60;;;;;;5091801;28;20178;-72
2022/05/09 02:22:15;;;;;;;1.50;1.40;;;19.40;53.60;;;;;;5092082;28;20182;-70
2022/05/09 02:24:40;;;;;;;3.00;1.40;;;19.40;53.60;;;;;;5091367;28;20177;-72
2022/05/09 02:27:07;;;;;;;2.72;1.45;;;19.40;53.60;;;;;;5092338;28;20192;-70
2022/05/09 02:29:32;;;;;;;1.98;1.52;;;19.40;53.60;;;;;;5092233;28;20243;-69
2022/05/09 02:31:59;;;;;;;2.85;1.38;;;19.40;53.60;;;;;;5094746;28;20688;-70
2022/05/09 02:34:24;;;;;;;1.70;1.60;;;19.40;53.60;;;;;;5096215;28;20235;-69
2022/05/09 02:36:50;;;;;;;2.80;1.60;;;19.40;53.60;;;;;;5096054;28;20165;-70
2022/05/09 02:39:15;;;;;;;1.85;1.27;;;19.40;53.60;;;;;;5095578;28;20161;-69
2022/05/09 02:41:41;;;;;;;3.63;1.58;;;19.40;53.70;;;;;;5096034;28;20173;-69
2022/05/09 02:44:07;;;;;;;2.58;1.90;;;19.30;53.60;;;;;;5096213;28;20166;-70
2022/05/09 02:46:32;;;;;;;2.85;1.52;;;19.30;53.70;;;;;;5095333;28;20192;-69
2022/05/09 02:48:59;;;;;;;2.60;1.45;;;19.30;53.70;;;;;;5095713;28;20174;-70
2022/05/09 02:51:26;;;;;;;1.52;1.33;;;19.30;53.60;;;;;;5095045;28;20660;-70
2022/05/09 02:53:51;;;;;;;2.33;1.40;;;19.30;53.60;;;;;;5095607;28;20173;-71
2022/05/09 02:56:16;;;;;;;2.20;1.35;;;19.30;53.70;;;;;;5095727;28;20173;-71
2022/05/09 02:58:42;;;;;;;2.67;1.42;;;19.30;53.70;;;;;;5094519;28;20170;-70
2022/05/09 03:01:07;;;;;;;2.22;1.52;;;19.30;53.70;;;;;;5095367;28;20317;-68
2022/05/09 03:06:17;;;;;;;1.92;1.30;;;19.20;53.60;;;;;;5095066;28;20647;-69
2022/05/09 03:08:43;;;;;;;1.60;1.20;;;19.30;53.70;;;;;;5095407;28;20192;-72
2022/05/09 03:11:08;;;;;;;2.42;1.50;;;19.30;53.70;;;;;;5095426;28;20255;-71
2022/05/09 03:13:34;;;;;;;1.73;1.60;;;19.30;53.70;;;;;;5094557;28;20174;-72
2022/05/09 03:16:01;;;;;;;1.98;1.50;;;19.20;53.60;;;;;;5095125;28;20247;-72
2022/05/09 03:18:27;;;;;;;1.85;1.52;;;19.30;53.70;;;;;;5095220;28;20201;-72
2022/05/09 03:20:52;;;;;;;1.48;1.35;;;19.20;53.60;;;;;;5094201;28;20473;-71
2022/05/09 03:23:18;;;;;;;3.40;1.60;;;19.20;53.60;;;;;;5094808;28;20543;-70
2022/05/09 03:25:43;;;;;;;1.60;1.27;;;19.20;53.60;;;;;;5094788;28;20178;-71
2022/05/09 03:28:11;;;;;;;3.80;1.50;;;19.20;53.60;;;;;;5094642;28;20648;-70
2022/05/09 03:30:37;;;;;;;1.30;1.20;;;19.20;53.60;;;;;;5094961;28;20244;-70
2022/05/09 03:33:03;;;;;;;2.17;1.40;;;19.20;53.60;;;;;;5095396;28;20193;-70
2022/05/09 03:35:28;;;;;;;2.45;1.50;;;19.20;53.60;;;;;;5094393;28;20173;-69
2022/05/09 03:37:54;;;;;;;1.88;1.52;;;19.20;53.60;;;;;;5094623;28;20636;-70
2022/05/09 03:40:21;;;;;;;2.20;1.50;;;19.20;53.60;;;;;;5094735;28;20530;-69
2022/05/09 03:42:47;;;;;;;3.00;1.60;;;19.20;53.70;;;;;;5092521;28;20544;-70
2022/05/09 03:45:12;;;;;;;1.92;1.50;;;19.20;53.70;;;;;;5094522;28;20702;-70
2022/05/09 03:47:38;;;;;;;1.50;1.40;;;19.20;53.70;;;;;;5093897;28;20174;-69
2022/05/09 03:50:04;;;;;;;2.13;1.50;;;19.20;53.70;;;;;;5094897;28;20199;-70
2022/05/09 03:52:30;;;;;;;2.97;1.50;;;19.20;53.70;;;;;;5094656;28;20261;-71
2022/05/09 03:54:57;;;;;;;1.90;1.70;;;19.20;53.70;;;;;;5093324;28;20170;-70
2022/05/09 03:57:23;;;;;;;1.73;1.60;;;19.20;53.70;;;;;;5094415;28;20181;-71
2022/05/09 03:59:48;;;;;;;1.67;1.58;;;19.20;53.70;;;;;;5093816;28;20532;-68
2022/05/09 04:02:14;;;;;;;1.58;1.48;;;19.10;53.60;;;;;;5093329;28;20253;-69
2022/05/09 04:04:39;;;;;;;2.05;1.52;;;19.10;53.70;;;;;;5094013;28;20271;-70
2022/05/09 04:07:05;;;;;;;2.08;1.40;;;19.10;53.70;;;;;;5094203;28;20624;-70
2022/05/09 04:09:31;;;;;;;2.53;1.40;;;19.10;53.60;;;;;;5093530;28;20181;-72
2022/05/09 04:11:56;;;;;;;2.70;1.70;;;19.10;53.70;;;;;;5093702;28;20681;-71
2022/05/09 04:17:07;;;;;;;1.90;1.70;;;19.10;53.60;;;;;;5093272;28;20177;-71
2022/05/09 04:19:33;;;;;;;2.50;1.63;;;19.10;53.60;;;;;;5093966;28;20170;-70
2022/05/09 04:22:00;;;;;;;2.72;1.67;;;19.10;53.70;;;;;;5093795;28;20185;-71
2022/05/09 04:24:25;;;;;;;2.13;1.60;;;19.10;53.60;;;;;;5093234;28;20174;-70
2022/05/09 04:26:51;;;;;;;3.05;1.70;;;19.10;53.60;;;;;;5093664;28;20186;-70
2022/05/09 04:29:16;;;;;;;4.18;2.05;;;19.10;53.60;;;;;;5093933;28;20174;-69
2022/05/09 04:31:42;;;;;;;2.70;1.30;;;19.10;53.60;;;;;;5093008;28;20508;-69
2022/05/09 04:34:08;;;;;;;1.63;1.52;;;19.10;53.60;;;;;;5093690;28;20170;-69
2022/05/09 04:36:33;;;;;;;1.85;1.50;;;19.10;53.60;;;;;;5093742;28;20170;-69
2022/05/09 04:38:59;;;;;;;2.45;1.63;;;19.10;53.60;;;;;;5092431;28;20177;-68
2022/05/09 04:41:25;;;;;;;1.77;1.65;;;19.10;53.60;;;;;;5093392;28;20178;-70
2022/05/09 04:43:51;;;;;;;3.42;1.70;;;19.10;53.60;;;;;;5093286;28;20201;-69
2022/05/09 04:46:16;;;;;;;2.00;1.45;;;19.10;53.60;;;;;;5093268;28;20177;-70
2022/05/09 04:48:43;;;;;;;1.65;1.27;;;19.10;53.60;;;;;;5093337;28;20217;-71
2022/05/09 04:51:09;;;;;;;2.03;1.42;;;19.10;53.60;;;;;;5092663;28;20278;-71
2022/05/09 04:53:35;;;;;;;1.63;1.20;;;19.10;53.60;;;;;;5092861;28;20178;-72
2022/05/09 04:56:00;;;;;;;2.63;1.60;;;19.10;53.60;;;;;;5093130;28;20170;-71
2022/05/09 04:58:26;;;;;;;2.72;1.75;;;19.10;53.60;;;;;;5092349;28;20226;-71
2022/05/09 05:00:51;;;;;;;2.28;2.00;;;19.10;53.60;;;;;;5093144;28;20652;-68
2022/05/09 05:03:17;;;;;;;1.67;1.45;;;19.10;53.60;;;;;;5093395;28;20607;-69
2022/05/09 05:05:43;;;;;;;2.17;1.40;;;19.10;53.60;;;;;;5092167;28;20703;-70
2022/05/09 05:08:08;;;;;;;1.83;1.42;;;19.10;53.60;;;;;;5093267;28;20177;-72
2022/05/09 05:10:34;;;;;;;2.83;1.80;;;19.10;53.60;;;;;;5093104;28;20216;-73
2022/05/09 05:13:02;;;;;;;4.38;1.67;;;19.10;53.60;;;;;;5092569;28;20260;-73
2022/05/09 05:15:28;;;;;;;1.95;1.55;;;19.10;53.60;;;;;;5093244;28;20172;-72
2022/05/09 05:17:53;;;;;;;2.05;1.80;;;19.10;53.60;;;;;;5092921;28;20174;-71
2022/05/09 05:20:19;;;;;;;2.35;1.60;;;19.10;53.60;;;;;;5092215;28;20535;-71
2022/05/09 05:22:47;;;;;;;2.90;1.58;;;19.10;53.60;;;;;;5092508;28;20628;-72
2022/05/09 05:25:13;;;;;;;2.90;1.75;;;19.10;53.60;;;;;;5092604;28;20648;-70
2022/05/09 05:27:39;;;;;;;2.67;1.60;;;19.10;53.60;;;;;;5091734;28;20235;-70
2022/05/09 05:30:05;;;;;;;1.70;1.60;;;19.10;53.60;;;;;;5092496;28;20182;-71
2022/05/09 05:32:34;;;;;;;2.22;1.85;;;19.10;53.60;;;;;;5092611;28;20189;-70
2022/05/09 05:35:00;;;;;;;2.00;1.80;;;19.10;53.60;;;;;;5091729;28;20178;-70
2022/05/09 05:37:25;;;;;;;1.70;1.52;;;19.10;53.60;;;;;;5092323;28;20223;-70
2022/05/09 05:39:51;;;;;;;1.83;1.38;;;19.10;53.70;;;;;;5091979;28;20252;-70
2022/05/09 05:42:17;;;;;;;2.25;1.63;;;19.10;53.60;;;;;;5091736;28;20641;-70
2022/05/09 05:44:43;;;;;;;2.22;1.60;;;19.10;53.60;;;;;;5092177;28;20198;-70
2022/05/09 05:47:11;;;;;;;2.13;1.38;;;19.10;53.60;;;;;;5091945;28;20722;-70
2022/05/09 05:49:36;;;;;;;1.83;1.45;;;19.10;53.60;;;;;;5091872;28;20182;-72
2022/05/09 05:52:03;;;;;;;1.48;1.38;;;19.10;53.60;;;;;;5092044;28;20672;-71
2022/05/09 05:54:34;;;;;;;3.88;1.95;;;19.10;53.60;;;;;;5091295;28;20178;-72
2022/05/09 05:57:00;;;;;;;6.18;1.85;;;19.10;53.60;;;;;;5092397;28;20256;-76
2022/05/09 05:59:25;;;;;;;2.15;1.60;;;19.10;53.60;;;;;;5092218;28;20581;-73
2022/05/09 06:01:52;;;;;;;3.55;1.75;;;19.20;53.60;;;;;;5090844;28;20622;-75
2022/05/09 06:04:18;;;;;;;3.03;1.85;;;19.20;53.60;;;;;;5092315;28;20547;-72
2022/05/09 06:06:43;;;;;;;6.57;2.20;;;19.20;53.60;;;;;;5091351;28;20248;-73
2022/05/09 06:09:10;;;;;;;4.35;1.75;;;19.20;53.60;;;;;;5091490;28;20257;-75
2022/05/09 06:11:35;;;;;;;3.50;2.10;;;19.10;53.60;;;;;;5091963;28;20278;-75
2022/05/09 06:14:04;;;;;;;2.60;1.50;;;19.10;53.60;;;;;;5091973;28;20173;-75
2022/05/09 06:16:30;;;;;;;4.82;1.60;;;19.20;53.70;;;;;;5091308;28;20204;-73
2022/05/09 06:18:55;;;;;;;6.32;1.95;;;19.20;53.70;;;;;;5091672;28;20636;-73
2022/05/09 06:21:22;;;;;;;5.53;1.90;;;19.20;53.70;;;;;;5091811;28;20185;-75
2022/05/09 06:23:48;;;;;;;2.15;1.67;;;19.10;53.60;;;;;;5090904;28;20173;-75
2022/05/09 06:26:14;;;;;;;3.53;1.77;;;19.20;53.70;;;;;;5091798;28;20634;-69
2022/05/09 06:28:40;;;;;;;6.05;2.30;;;19.20;53.30;;;;;;5091714;28;20347;-68
2022/05/09 06:31:06;;;;;;;3.10;1.85;;;19.20;53.20;;;;;;5091374;28;20201;-67
2022/05/09 06:33:31;;;;;;;4.15;2.00;;;19.20;53.40;;;;;;5091899;28;20177;-67
2022/05/09 06:35:57;;;;;;;6.30;2.30;;;19.20;53.50;;;;;;5091805;28;20276;-67
2022/05/09 06:38:24;;;;;;;9.45;2.67;;;19.10;53.00;;;;;;5090171;28;20640;-68
2022/05/09 06:40:49;;;;;;;7.53;2.90;;;19.20;52.60;;;;;;5091962;28;20212;-68
2022/05/09 06:43:15;;;;;;;5.40;2.28;;;19.20;52.60;;;;;;5092365;28;20182;-73
2022/05/09 06:45:41;;;;;;;10.35;3.15;;;19.20;52.60;;;;;;5091002;28;20539;-73
2022/05/09 06:48:08;;;;;;;6.65;2.63;;;19.20;52.60;;;;;;5091966;28;20182;-73
2022/05/09 06:50:34;;;;;;;6.40;2.20;;;19.30;52.70;;;;;;5091199;28;20284;-73
2022/05/09 06:53:00;;;;;;;6.28;2.67;;;19.20;52.60;;;;;;5091862;28;20618;-73
2022/05/09 06:55:25;;;;;;;7.97;2.10;;;19.30;52.60;;;;;;5092330;28;20287;-76
2022/05/09 06:57:51;;;;;;;6.03;2.72;;;19.30;52.60;;;;;;5092678;28;20209;-77
2022/05/09 07:00:21;;;;;;;9.45;2.45;;;19.40;52.60;;;;;;5091856;28;20257;-75
2022/05/09 07:02:47;;;;;;;8.20;2.58;;;19.40;52.60;;;;;;5092990;28;20240;-77
2022/05/09 07:05:13;;;;;;;6.03;2.28;;;19.40;52.60;;;;;;5091925;28;20173;-76
2022/05/09 07:07:39;;;;;;;10.77;2.78;;;19.40;52.50;;;;;;5095352;28;20170;-77
2022/05/09 07:10:05;;;;;;;8.15;2.67;;;19.50;52.50;;;;;;5091735;28;20223;-75
2022/05/09 07:12:30;;;;;;;7.00;3.05;;;19.50;52.30;;;;;;5091206;28;20181;-76
2022/05/09 07:14:56;;;;;;;12.65;2.65;;;19.50;51.70;;;;;;5091608;28;20184;-76
2022/05/09 07:17:21;;;;;;;9.75;3.40;;;19.50;51.80;;;;;;5094756;28;20218;-72
2022/05/09 07:19:47;;;;;;;10.57;3.28;;;19.50;51.80;;;;;;5094411;28;20200;-74
2022/05/09 07:22:13;;;;;;;7.88;3.17;;;19.50;51.50;;;;;;5095219;28;20181;-74
2022/05/09 07:24:40;;;;;;;11.13;3.22;;;19.60;51.50;;;;;;5095119;28;20234;-76
2022/05/09 07:27:06;;;;;;;7.95;2.25;;;19.50;51.40;;;;;;5094769;28;20170;-72
2022/05/09 07:29:31;;;;;;;10.55;3.17;;;19.60;51.40;;;;;;5095264;28;20178;-77
2022/05/09 07:31:57;;;;;;;7.90;2.63;;;19.60;51.40;;;;;;5095266;28;20212;-76
2022/05/09 07:34:22;;;;;;;10.00;3.10;;;19.60;51.60;;;;;;5095036;28;20182;-73
2022/05/09 07:36:48;;;;;;;9.40;3.10;;;19.60;51.60;;;;;;5094551;28;20178;-72
2022/05/09 07:39:16;;;;;;;19.48;3.45;;;19.60;51.50;;;;;;5094814;28;20197;-71
2022/05/09 07:41:42;;;;;;;11.25;3.17;;;19.60;51.50;;;;;;5093988;28;20169;-70
2022/05/09 07:44:08;;;;;;;15.07;3.20;;;19.70;51.60;;;;;;5094975;28;20641;-69
2022/05/09 07:46:34;;;;;;;9.10;3.50;;;19.70;52.30;;;;;;5094838;28;20629;-69
2022/05/09 07:48:59;;;;;;;9.70;3.35;;;19.70;51.70;;;;;;5093806;28;20210;-70
2022/05/09 07:51:25;;;;;;;13.73;3.70;;;19.70;51.70;;;;;;5094745;28;20217;-69
2022/05/09 07:53:51;;;;;;;9.77;3.08;;;19.70;51.70;;;;;;5093385;28;20571;-72
2022/05/09 07:56:17;;;;;;;11.07;3.35;;;19.70;51.60;;;;;;5094723;28;20189;-71
2022/05/09 07:58:43;;;;;;;8.15;3.03;;;19.70;51.70;;;;;;5094100;28;20182;-69
2022/05/09 08:01:08;;;;;;;8.20;2.78;;;19.70;51.70;;;;;;5093399;28;20272;-69
2022/05/09 08:03:34;;;;;;;11.77;3.08;;;19.80;51.80;;;;;;5094215;28;20182;-68
2022/05/09 08:06:00;;;;;;;8.63;2.60;;;19.70;51.70;;;;;;5094515;28;20519;-69
2022/05/09 08:08:28;;;;;;;7.63;3.05;;;19.70;51.70;;;;;;5093482;28;20206;-72
2022/05/09 08:10:55;;;;;;;7.78;2.85;;;19.80;51.80;;;;;;5093882;28;20197;-71
2022/05/09 08:13:20;;;;;;;5.38;2.65;;;19.80;51.80;;;;;;5093903;28;20212;-72
2022/05/09 08:15:46;;;;;;;5.82;2.78;;;19.80;51.80;;;;;;5092982;28;20206;-71
2022/05/09 08:18:13;;;;;;;8.85;2.58;;;19.80;51.80;;;;;;5093776;28;20239;-71
2022/05/09 08:20:40;;;;;;;8.40;2.88;;;19.80;51.90;;;;;;5093541;28;20185;-73
2022/05/09 08:23:07;;;;;;;8.50;2.60;;;19.80;51.90;;;;;;5093340;28;20198;-70
2022/05/09 08:25:34;;;;;;;8.00;2.72;;;19.80;51.90;;;;;;5093976;28;20182;-71
2022/05/09 08:28:01;;;;;;;9.40;2.58;;;19.80;51.90;;;;;;5093100;28;20174;-71
2022/05/09 08:30:32;;;;;;;7.00;2.75;;;19.90;52.00;;;;;;5092948;28;20671;-70
2022/05/09 08:32:58;;;;;;;6.75;2.47;;;19.90;52.00;;;;;;5093681;28;20201;-70
2022/05/09 08:35:23;;;;;;;7.82;2.60;;;19.90;52.00;;;;;;5093779;28;20202;-69
2022/05/09 08:37:49;;;;;;;5.68;2.75;;;19.90;52.00;;;;;;5092664;28;20515;-70
2022/05/09 08:40:15;;;;;;;7.75;3.00;;;19.90;52.00;;;;;;5093439;28;20693;-70
2022/05/09 08:42:45;;;;;;;5.13;2.05;;;19.90;52.10;;;;;;5093377;28;20261;-70
2022/05/09 08:45:30;;;;;;;6.10;2.63;;;20.00;52.10;;;;;;5092946;28;20231;-70
2022/05/09 08:48:10;;;;;;;6.55;2.70;;;19.90;52.10;;;;;;5091801;28;20652;-70
2022/05/09 08:50:44;;;;;;;5.65;2.40;;;20.00;52.10;;;;;;5091305;28;20255;-71
2022/05/09 08:53:19;;;;;;;7.68;2.25;;;20.00;52.20;;;;;;5092133;28;20220;-71
2022/05/09 08:55:45;;;;;;;4.07;2.10;;;20.00;52.10;;;;;;5091991;28;20169;-71
2022/05/09 08:58:42;;;;;;;3.63;2.15;;;20.00;52.20;;;;;;5092892;28;20184;-70
2022/05/09 09:01:14;;;;;;;5.85;2.88;;;20.00;52.20;;;;;;5092988;28;20753;-70
2022/05/09 09:03:43;;;;;;;8.35;2.53;;;20.00;52.20;;;;;;5093066;28;20173;-70
2022/05/09 09:06:27;;;;;;;4.15;2.35;;;20.10;52.20;;;;;;5091191;28;20181;-70
2022/05/09 09:09:10;;;;;;;4.60;2.42;;;20.10;52.30;;;;;;5092055;28;20260;-73
2022/05/09 09:11:37;;;;;;;4.40;2.20;;;20.10;52.30;;;;;;5091043;28;20220;-72
2022/05/09 09:14:47;;;;;;;6.45;2.60;;;20.10;52.20;;;;;;5091966;28;20170;-72
2022/05/09 09:17:24;;;;;;;4.35;2.05;;;20.10;52.20;;;;;;5077010;28;20205;-72
2022/05/09 09:20:04;;;;;;;3.75;2.05;;;20.20;53.00;;;;;;5092183;28;20249;-72
2022/05/09 09:22:50;;;;;;;4.53;2.03;;;20.20;52.30;;;;;;5092860;28;20173;-72
2022/05/09 09:25:49;;;;;;;4.10;2.25;;;20.20;52.30;;;;;;5091418;28;20543;-72
2022/05/09 09:28:28;;;;;;;4.80;1.90;;;20.20;52.30;;;;;;5092926;28;20207;-70
2022/05/09 09:30:54;;;;;;;5.07;2.17;;;20.30;52.40;;;;;;5091097;28;20694;-70
2022/05/09 09:33:19;;;;;;;2.83;1.90;;;20.30;52.30;;;;;;5090803;28;20170;-70
2022/05/09 09:35:48;;;;;;;5.05;2.30;;;20.30;52.30;;;;;;5092374;28;20177;-70
2022/05/09 09:38:26;;;;;;;4.07;1.75;;;20.30;52.30;;;;;;5092631;28;20180;-69
2022/05/09 09:40:51;;;;;;;3.17;2.17;;;20.30;52.30;;;;;;5089529;28;20173;-70
2022/05/09 09:43:17;;;;;;;5.13;2.20;;;20.30;52.30;;;;;;5092410;28;20180;-68
2022/05/09 09:45:46;;;;;;;3.80;2.17;;;20.30;52.30;;;;;;5092058;28;20202;-73
2022/05/09 09:48:13;;;;;;;4.25;2.00;;;20.40;52.30;;;;;;5092034;28;20185;-72
2022/05/09 09:51:03;;;;;;;4.05;1.73;;;20.40;52.30;;;;;;5092040;28;20564;-76
2022/05/09 09:53:48;;;;;;;2.72;2.25;;;20.40;53.00;;;;;;5091879;28;20326;-75
2022/05/09 09:56:22;;;;;;;3.72;2.35;;;20.40;52.30;;;;;;5092261;28;20173;-75
2022/05/09 09:59:23;;;;;;;3.50;1.70;;;20.40;52.30;;;;;;5092318;28;20180;-74
2022/05/09 10:02:12;;;;;;;3.13;1.73;;;20.40;52.30;;;;;;5091213;28;20232;-74
2022/05/09 10:04:37;;;;;;;3.28;2.03;;;20.40;52.20;;;;;;5091908;28;20189;-74
2022/05/09 10:07:33;;;;;;;3.28;2.20;;;20.40;52.20;;;;;;5092288;28;20176;-73
2022/05/09 10:10:10;;;;;;;3.35;2.00;;;20.50;52.10;;;;;;5078813;28;20717;-75
2022/05/09 10:12:35;;;;;;;4.65;1.90;;;20.50;52.10;;;;;;5091886;28;20193;-77
2022/05/09 10:15:21;;;;;;;2.90;1.50;;;20.50;52.00;;;;;;5089997;28;20176;-76
2022/05/09 10:17:47;;;;;;;7.28;2.13;;;20.50;51.90;;;;;;5087724;28;20312;-76
2022/05/09 10:20:34;;;;;;;6.22;2.22;;;20.50;51.90;;;;;;5090867;28;20284;-75
2022/05/09 10:26:04;;;;;;;4.93;1.88;;;20.60;51.80;;;;;;5070515;28;20181;-74
2022/05/09 10:28:32;;;;;;;2.45;1.65;;;20.50;51.70;;;;;;5071776;28;20174;-76
2022/05/09 10:31:02;;;;;;;5.90;2.50;;;20.60;51.70;;;;;;5071295;28;20213;-73
2022/05/09 10:33:34;;;;;;;3.80;2.13;;;20.60;51.60;;;;;;5073677;28;20184;-73
2022/05/09 10:36:08;;;;;;;3.63;2.05;;;20.60;51.60;;;;;;5090236;28;20170;-73
2022/05/09 10:38:36;;;;;;;3.88;2.22;;;20.60;51.60;;;;;;5090864;28;20250;-75
2022/05/09 10:41:09;;;;;;;2.58;1.67;;;20.60;51.60;;;;;;5091979;28;20181;-72
2022/05/09 10:43:45;;;;;;;3.55;2.75;;;20.60;51.60;;;;;;5089782;28;20173;-73
2022/05/09 10:46:11;;;;;;;4.78;1.80;;;20.60;51.60;;;;;;5090637;28;20575;-72
2022/05/09 10:48:49;;;;;;;5.60;2.00;;;20.60;51.60;;;;;;5091763;28;20191;-75
2022/05/09 10:51:25;;;;;;;4.03;1.80;;;20.70;51.60;;;;;;5091744;28;20209;-72
2022/05/09 10:54:08;;;;;;;3.72;1.67;;;20.70;51.60;;;;;;5078805;28;20182;-76
2022/05/09 10:56:52;;;;;;;3.00;1.60;;;20.70;51.50;;;;;;5094612;28;20248;-73
2022/05/09 10:59:24;;;;;;;3.50;1.80;;;20.70;51.50;;;;;;5094744;28;20540;-74
2022/05/09 11:01:56;;;;;;;9.73;2.72;;;20.70;51.50;;;;;;5093910;28;20225;-72
2022/05/09 11:04:23;;;;;;;4.90;1.83;;;20.70;51.50;;;;;;5093874;28;20177;-73
2022/05/09 11:06:48;;;;;;;8.57;2.22;;;20.70;51.50;;;;;;5095311;28;20190;-74
2022/05/09 11:09:29;;;;;;;5.05;2.30;;;20.80;51.50;;;;;;5095613;28;20177;-76
2022/05/09 11:12:05;;;;;;;3.75;1.85;;;20.70;51.40;;;;;;5093148;28;20727;-74
2022/05/09 11:14:52;;;;;;;5.40;2.10;;;20.70;51.50;;;;;;5095472;28;20169;-75
2022/05/09 11:17:40;;;;;;;6.18;1.80;;;20.70;51.40;;;;;;5095421;28;20265;-80
2022/05/09 11:20:32;;;;;;;5.68;2.17;;;20.80;51.50;;;;;;5078187;28;20520;-78
2022/05/09 11:23:34;;;;;;;4.30;1.92;;;20.80;51.50;;;;;;5093406;28;20542;-76
2022/05/09 11:26:31;;;;;;;2.10;1.83;;;20.80;51.50;;;;;;5074333;28;20268;-78
2022/05/09 11:29:24;;;;;;;5.78;2.30;;;20.80;51.50;;;;;;5075851;28;20679;-75
2022/05/09 11:32:16;;;;;;;2.60;1.80;;;20.90;51.50;;;;;;5072659;28;20575;-73
2022/05/09 11:35:03;;;;;;;3.90;1.80;;;20.90;51.50;;;;;;5073547;28;20353;-73
2022/05/09 11:37:44;;;;;;;3.58;1.80;;;20.80;51.40;;;;;;5074519;28;20614;-73
2022/05/09 11:40:28;;;;;;;6.65;2.03;;;20.80;51.40;;;;;;5073681;28;20644;-76
2022/05/09 11:43:28;;;;;;;3.55;1.85;;;20.90;51.50;;;;;;5075094;28;20605;-77
2022/05/09 11:46:08;;;;;;;2.53;1.65;;;20.90;51.40;;;;;;5072478;28;20198;-76
2022/05/09 11:48:56;;;;;;;3.70;1.65;;;21.00;51.30;;;;;;5074355;28;20200;-75
2022/05/09 11:51:33;;;;;;;5.10;1.77;;;21.00;51.30;;;;;;5073329;28;20347;-74
2022/05/09 11:54:04;;;;;;;5.68;1.88;;;21.00;51.20;;;;;;5072107;28;20549;-75
2022/05/09 11:56:30;;;;;;;4.82;1.75;;;21.00;51.20;;;;;;5073195;28;20178;-76
2022/05/09 11:58:55;;;;;;;3.45;1.77;;;21.00;51.10;;;;;;5072878;28;20182;-75
2022/05/09 12:02:00;;;;;;;3.97;2.00;;;21.00;51.20;;;;;;5071915;28;20222;-73
2022/05/09 12:04:31;;;;;;;5.70;2.03;;;21.00;51.20;;;;;;5073231;28;20251;-74
2022/05/09 12:06:57;;;;;;;3.92;1.75;;;21.00;51.10;;;;;;5073444;28;20209;-75
2022/05/09 12:10:00;;;;;;;7.35;2.30;;;21.10;51.10;;;;;;5073735;28;20171;-79
2022/05/09 12:12:37;;;;;;;7.88;1.95;;;21.00;51.10;;;;;;5058483;28;20351;-76
2022/05/09 12:15:29;;;;;;;4.65;2.10;;;21.10;51.10;;;;;;5073464;28;20625;-75
2022/05/09 12:17:54;;;;;;;4.43;1.92;;;21.10;50.90;;;;;;5057566;28;20685;-76
2022/05/09 12:20:27;;;;;;;5.72;2.20;;;21.10;50.90;;;;;;5073843;28;20253;-76
2022/05/09 12:22:56;;;;;;;3.78;1.88;;;21.10;50.80;;;;;;5073032;28;20249;-75
2022/05/09 12:25:35;;;;;;;5.45;1.80;;;21.10;50.80;;;;;;5092365;28;20257;-74
2022/05/09 12:28:05;;;;;;;5.90;1.60;;;21.20;51.00;;;;;;5093932;28;20472;-74
2022/05/09 12:30:52;;;;;;;7.55;1.90;;;21.20;50.80;;;;;;5093868;28;20202;-73
2022/05/09 12:33:44;;;;;;;3.95;2.10;;;21.20;50.70;;;;;;5093616;28;20264;-72
2022/05/09 12:36:16;;;;;;;4.47;1.75;;;21.30;50.60;;;;;;5091557;28;20186;-74
2022/05/09 12:38:43;;;;;;;4.95;1.90;;;21.20;50.40;;;;;;5093112;28;20182;-74
2022/05/09 12:41:14;;;;;;;5.78;1.92;;;21.30;50.40;;;;;;5093819;28;20322;-74
2022/05/09 12:43:43;;;;;;;3.35;1.77;;;21.30;50.30;;;;;;5091531;28;20252;-73
2022/05/09 12:46:15;;;;;;;3.25;1.92;;;21.40;50.30;;;;;;5093711;28;20420;-73
2022/05/09 12:48:41;;;;;;;2.60;1.67;;;21.40;50.30;;;;;;5092481;28;20178;-76
2022/05/09 12:51:09;;;;;;;2.28;1.63;;;21.50;50.20;;;;;;5092814;28;20278;-75
2022/05/09 12:53:35;;;;;;;4.72;1.70;;;21.50;50.10;;;;;;5092206;28;20185;-76
2022/05/09 12:56:08;;;;;;;3.88;1.77;;;21.50;50.10;;;;;;5092268;28;20535;-75
2022/05/09 12:58:35;;;;;;;3.40;1.52;;;21.60;50.20;;;;;;5091339;28;20649;-73
2022/05/09 13:01:16;;;;;;;3.88;1.63;;;21.50;50.20;;;;;;5092986;28;20583;-71
2022/05/09 13:03:48;;;;;;;3.67;1.52;;;21.60;50.20;;;;;;5092087;28;20229;-73
2022/05/09 13:06:21;;;;;;;3.83;1.45;;;21.70;50.20;;;;;;5093453;28;20178;-74
2022/05/09 13:08:47;;;;;;;2.15;1.48;;;21.60;50.30;;;;;;5093056;28;20193;-75
2022/05/09 13:11:15;;;;;;;2.63;1.80;;;21.70;50.30;;;;;;5092377;28;20209;-76